createdAt,value
2019-05-09T00:00:14.130Z,10.04
2019-05-09T00:01:17.735Z,10.02
2019-05-09T00:02:28.648Z,10.07
2019-05-09T00:03:33.458Z,10.10
2019-05-09T00:04:37.218Z,10.18
2019-05-09T00:05:40.708Z,10.15
2019-05-09T00:06:44.327Z,10.16
2019-05-09T00:07:47.778Z,10.19
2019-05-09T00:08:53.240Z,10.08
2019-05-09T00:09:56.593Z,10.06
2019-05-09T00:11:00.152Z,9.95
2019-05-09T00:12:03.895Z,9.90
2019-05-09T00:13:07.430Z,9.95
2019-05-09T00:14:12.978Z,10.00
2019-05-09T00:15:16.334Z,10.08
2019-05-09T00:16:19.906Z,10.14
2019-05-09T00:17:23.430Z,10.18
2019-05-09T00:18:26.899Z,10.18
2019-05-09T00:19:30.438Z,10.19
2019-05-09T00:20:38.001Z,10.15
2019-05-09T00:21:43.711Z,10.10
2019-05-09T00:22:47.338Z,10.02
2019-05-09T00:23:50.886Z,9.94
2019-05-09T00:24:54.358Z,10.01
2019-05-09T00:25:57.913Z,10.02
2019-05-09T00:27:03.644Z,9.94
2019-05-09T00:28:07.081Z,9.94
2019-05-09T00:29:14.050Z,10.00
2019-05-09T00:30:19.155Z,9.98
2019-05-09T00:31:24.318Z,9.97
2019-05-09T00:32:34.082Z,9.95
2019-05-09T00:33:37.371Z,9.91
2019-05-09T00:34:44.184Z,9.95
2019-05-09T00:35:47.712Z,9.90
2019-05-09T00:36:51.211Z,9.92
2019-05-09T00:37:58.757Z,9.95
2019-05-09T00:39:04.086Z,9.92
2019-05-09T00:40:07.546Z,9.95
2019-05-09T00:41:11.087Z,10.00
2019-05-09T00:42:14.647Z,9.93
2019-05-09T00:43:18.182Z,9.96
2019-05-09T00:44:28.811Z,10.01
2019-05-09T00:45:33.979Z,9.97
2019-05-09T00:46:53.413Z,9.85
2019-05-09T00:47:56.462Z,9.78
2019-05-09T00:49:07.362Z,9.75
2019-05-09T00:50:13.115Z,9.71
2019-05-09T00:51:16.236Z,9.64
2019-05-09T00:52:19.727Z,9.70
2019-05-09T00:53:23.353Z,9.79
2019-05-09T00:54:26.977Z,9.83
2019-05-09T00:55:30.522Z,9.74
2019-05-09T00:56:34.066Z,9.73
2019-05-09T00:57:37.556Z,9.78
2019-05-09T00:58:41.027Z,9.73
2019-05-09T00:59:44.685Z,9.66
2019-05-09T01:00:48.302Z,9.59
2019-05-09T01:01:54.139Z,9.66
2019-05-09T01:02:57.111Z,9.67
2019-05-09T01:04:00.578Z,9.61
2019-05-09T01:05:04.690Z,9.57
2019-05-09T01:06:08.230Z,9.54
2019-05-09T01:07:13.796Z,9.62
2019-05-09T01:08:16.961Z,9.55
2019-05-09T01:09:20.423Z,9.53
2019-05-09T01:10:23.979Z,9.44
2019-05-09T01:11:27.508Z,9.37
2019-05-09T01:12:31.014Z,9.39
2019-05-09T01:13:34.546Z,9.39
2019-05-09T01:14:38.151Z,9.45
2019-05-09T01:15:43.876Z,9.42
2019-05-09T01:16:46.960Z,9.49
2019-05-09T01:17:50.496Z,9.45
2019-05-09T01:18:54.618Z,9.42
2019-05-09T01:19:59.089Z,9.35
2019-05-09T01:21:04.012Z,9.34
2019-05-09T01:22:07.755Z,9.43
2019-05-09T01:23:11.221Z,9.45
2019-05-09T01:24:14.756Z,9.48
2019-05-09T01:25:18.218Z,9.46
2019-05-09T01:26:23.952Z,9.49
2019-05-09T01:27:26.960Z,9.54
2019-05-09T01:28:30.424Z,9.58
2019-05-09T01:29:33.981Z,9.54
2019-05-09T01:30:37.505Z,9.52
2019-05-09T01:31:41.037Z,9.47
2019-05-09T01:32:53.933Z,9.52
2019-05-09T01:33:58.922Z,9.57
2019-05-09T01:35:03.845Z,9.55
2019-05-09T01:36:07.503Z,9.50
2019-05-09T01:37:14.118Z,9.59
2019-05-09T01:38:17.441Z,9.57
2019-05-09T01:39:20.933Z,9.49
2019-05-09T01:40:24.400Z,9.58
2019-05-09T01:41:33.406Z,9.62
2019-05-09T01:42:33.781Z,9.67
2019-05-09T01:43:37.485Z,9.64
2019-05-09T01:44:40.949Z,9.69
2019-05-09T01:45:46.915Z,9.59
2019-05-09T01:46:49.750Z,9.59
2019-05-09T01:47:53.756Z,9.56
2019-05-09T01:48:57.381Z,9.56
2019-05-09T01:50:03.743Z,9.59
2019-05-09T01:51:06.253Z,9.58
2019-05-09T01:52:09.730Z,9.42
2019-05-09T01:53:14.834Z,9.42
2019-05-09T01:54:19.294Z,9.48
2019-05-09T01:55:24.643Z,9.49
2019-05-09T01:56:28.106Z,9.50
2019-05-09T01:57:33.653Z,9.50
2019-05-09T01:58:36.837Z,9.54
2019-05-09T01:59:40.389Z,9.59
2019-05-09T02:00:43.988Z,9.61
2019-05-09T02:01:47.457Z,9.57
2019-05-09T02:02:50.925Z,9.62
2019-05-09T02:03:54.457Z,9.70
2019-05-09T02:04:58.015Z,9.55
2019-05-09T02:06:03.547Z,9.56
2019-05-09T02:07:07.031Z,9.61
2019-05-09T02:08:10.572Z,9.66
2019-05-09T02:09:14.199Z,9.64
2019-05-09T02:10:17.806Z,9.67
2019-05-09T02:11:23.623Z,9.69
2019-05-09T02:12:26.449Z,9.62
2019-05-09T02:13:29.913Z,9.63
2019-05-09T02:14:43.869Z,9.58
2019-05-09T02:15:57.709Z,9.58
2019-05-09T02:17:18.901Z,9.55
2019-05-09T02:18:26.983Z,9.57
2019-05-09T02:19:34.687Z,9.63
2019-05-09T02:20:38.184Z,9.65
2019-05-09T02:21:43.648Z,9.69
2019-05-09T02:22:46.922Z,9.71
2019-05-09T02:23:50.523Z,9.74
2019-05-09T02:24:54.077Z,9.83
2019-05-09T02:25:57.582Z,9.87
2019-05-09T02:27:01.049Z,9.86
2019-05-09T02:28:04.656Z,9.88
2019-05-09T02:29:08.128Z,9.89
2019-05-09T02:30:15.323Z,9.82
2019-05-09T02:31:17.471Z,9.84
2019-05-09T02:32:23.750Z,9.78
2019-05-09T02:33:26.179Z,9.68
2019-05-09T02:34:29.660Z,9.71
2019-05-09T02:35:43.406Z,9.70
2019-05-09T02:36:38.599Z,9.69
2019-05-09T02:37:42.042Z,9.69
2019-05-09T02:38:48.576Z,9.71
2019-05-09T02:39:50.835Z,9.75
2019-05-09T02:40:54.335Z,9.73
2019-05-09T02:42:08.015Z,9.71
2019-05-09T02:43:03.223Z,9.77
2019-05-09T02:44:09.339Z,9.75
2019-05-09T02:45:12.523Z,9.67
2019-05-09T02:46:32.441Z,9.64
2019-05-09T02:47:38.510Z,9.65
2019-05-09T02:48:41.186Z,9.74
2019-05-09T02:49:44.654Z,9.71
2019-05-09T02:50:48.734Z,9.63
2019-05-09T02:51:52.266Z,9.67
2019-05-09T02:52:58.871Z,9.71
2019-05-09T02:54:00.904Z,9.78
2019-05-09T02:55:05.520Z,9.85
2019-05-09T02:56:09.462Z,9.85
2019-05-09T02:57:13.048Z,9.85
2019-05-09T02:58:20.286Z,9.83
2019-05-09T02:59:24.986Z,9.83
2019-05-09T03:00:48.311Z,9.75
2019-05-09T03:01:53.468Z,9.77
2019-05-09T03:02:59.507Z,9.75
2019-05-09T03:04:03.307Z,9.76
2019-05-09T03:05:08.825Z,9.83
2019-05-09T03:06:12.595Z,9.80
2019-05-09T03:07:18.873Z,9.71
2019-05-09T03:08:21.406Z,9.58
2019-05-09T03:09:25.008Z,9.50
2019-05-09T03:10:29.559Z,9.56
2019-05-09T03:11:33.178Z,9.62
2019-05-09T03:12:39.895Z,9.69
2019-05-09T03:13:41.977Z,9.67
2019-05-09T03:14:48.545Z,9.69
2019-05-09T03:15:52.475Z,9.67
2019-05-09T03:16:58.710Z,9.71
2019-05-09T03:18:01.219Z,9.72
2019-05-09T03:19:04.824Z,9.70
2019-05-09T03:20:10.773Z,9.67
2019-05-09T03:21:30.841Z,9.67
2019-05-09T03:22:34.323Z,9.66
2019-05-09T03:23:38.792Z,9.72
2019-05-09T03:24:42.640Z,9.77
2019-05-09T03:25:48.408Z,9.82
2019-05-09T03:26:59.658Z,9.80
2019-05-09T03:28:10.711Z,9.82
2019-05-09T03:29:31.012Z,9.65
2019-05-09T03:30:39.882Z,9.58
2019-05-09T03:31:43.988Z,9.51
2019-05-09T03:32:49.020Z,9.52
2019-05-09T03:33:52.626Z,9.60
2019-05-09T03:34:58.001Z,9.64
2019-05-09T03:36:01.348Z,9.68
2019-05-09T03:37:04.905Z,9.61
2019-05-09T03:38:08.597Z,9.61
2019-05-09T03:39:12.082Z,9.60
2019-05-09T03:40:17.945Z,9.58
2019-05-09T03:41:20.806Z,9.62
2019-05-09T03:42:38.072Z,9.70
2019-05-09T03:43:29.560Z,9.73
2019-05-09T03:44:33.104Z,9.69
2019-05-09T03:45:41.134Z,9.69
2019-05-09T03:46:52.042Z,9.64
2019-05-09T03:47:58.252Z,9.67
2019-05-09T03:49:07.527Z,9.66
2019-05-09T03:50:17.651Z,9.67
2019-05-09T03:51:21.496Z,9.71
2019-05-09T03:52:24.984Z,9.69
2019-05-09T03:53:28.478Z,9.68
2019-05-09T03:54:31.976Z,9.73
2019-05-09T03:55:38.184Z,9.75
2019-05-09T03:56:48.058Z,9.83
2019-05-09T03:57:59.099Z,9.81
2019-05-09T03:59:02.652Z,9.73
2019-05-09T04:00:08.355Z,9.67
2019-05-09T04:01:11.819Z,9.64
2019-05-09T04:02:17.654Z,9.64
2019-05-09T04:03:20.981Z,9.61
2019-05-09T04:04:24.521Z,9.57
2019-05-09T04:05:28.044Z,9.45
2019-05-09T04:06:31.507Z,9.45
2019-05-09T04:07:34.991Z,9.48
2019-05-09T04:08:38.463Z,9.52
2019-05-09T04:09:41.920Z,9.51
2019-05-09T04:10:49.947Z,9.54
2019-05-09T04:11:52.234Z,9.53
2019-05-09T04:12:58.986Z,9.56
2019-05-09T04:14:08.458Z,9.60
2019-05-09T04:15:12.014Z,9.59
2019-05-09T04:16:17.344Z,9.58
2019-05-09T04:17:20.758Z,9.53
2019-05-09T04:18:24.226Z,9.54
2019-05-09T04:19:27.778Z,9.52
2019-05-09T04:20:31.236Z,9.43
2019-05-09T04:21:34.772Z,9.42
2019-05-09T04:22:38.644Z,9.47
2019-05-09T04:23:42.112Z,9.41
2019-05-09T04:24:47.389Z,9.37
2019-05-09T04:25:52.819Z,9.44
2019-05-09T04:27:01.093Z,9.50
2019-05-09T04:28:07.352Z,9.49
2019-05-09T04:29:10.469Z,9.36
2019-05-09T04:30:15.544Z,9.28
2019-05-09T04:31:19.012Z,9.25
2019-05-09T04:32:22.544Z,9.25
2019-05-09T04:33:27.949Z,9.27
2019-05-09T04:34:31.285Z,9.33
2019-05-09T04:35:34.754Z,9.31
2019-05-09T04:36:41.269Z,9.33
2019-05-09T04:37:44.736Z,9.36
2019-05-09T04:38:48.217Z,9.51
2019-05-09T04:39:54.064Z,9.51
2019-05-09T04:40:58.426Z,9.47
2019-05-09T04:42:05.491Z,9.38
2019-05-09T04:43:15.401Z,9.35
2019-05-09T04:44:19.312Z,9.25
2019-05-09T04:45:23.652Z,9.23
2019-05-09T04:46:27.747Z,9.21
2019-05-09T04:47:33.923Z,9.15
2019-05-09T04:48:37.612Z,9.20
2019-05-09T04:49:45.113Z,9.24
2019-05-09T04:50:47.857Z,9.23
2019-05-09T04:51:51.346Z,9.20
2019-05-09T04:52:54.880Z,9.19
2019-05-09T04:53:58.495Z,9.24
2019-05-09T04:55:01.918Z,9.20
2019-05-09T04:56:07.277Z,9.13
2019-05-09T04:57:10.830Z,9.08
2019-05-09T04:58:14.292Z,9.04
2019-05-09T04:59:18.110Z,9.05
2019-05-09T05:00:23.251Z,9.06
2019-05-09T05:01:31.132Z,9.06
2019-05-09T05:02:41.895Z,9.14
2019-05-09T05:03:47.905Z,9.21
2019-05-09T05:04:51.067Z,9.23
2019-05-09T05:05:54.530Z,9.22
2019-05-09T05:06:58.665Z,9.22
2019-05-09T05:08:02.222Z,9.23
2019-05-09T05:09:10.104Z,9.23
2019-05-09T05:10:13.833Z,9.19
2019-05-09T05:11:17.904Z,9.17
2019-05-09T05:12:21.495Z,9.13
2019-05-09T05:13:27.320Z,9.13
2019-05-09T05:14:30.191Z,9.10
2019-05-09T05:15:33.651Z,9.13
2019-05-09T05:16:39.217Z,9.14
2019-05-09T05:17:42.382Z,9.20
2019-05-09T05:18:47.817Z,9.15
2019-05-09T05:19:51.294Z,9.11
2019-05-09T05:20:54.930Z,9.12
2019-05-09T05:22:00.045Z,9.19
2019-05-09T05:23:05.206Z,9.24
2019-05-09T05:24:10.336Z,9.27
2019-05-09T05:25:13.970Z,9.28
2019-05-09T05:26:18.577Z,9.34
2019-05-09T05:27:22.052Z,9.34
2019-05-09T05:28:27.694Z,9.39
2019-05-09T05:29:30.835Z,9.46
2019-05-09T05:30:34.389Z,9.49
2019-05-09T05:31:38.790Z,9.48
2019-05-09T05:32:44.043Z,9.44
2019-05-09T05:33:53.835Z,9.47
2019-05-09T05:34:58.437Z,9.43
2019-05-09T05:36:09.372Z,9.47
2019-05-09T05:37:12.919Z,9.54
2019-05-09T05:38:17.649Z,9.54
2019-05-09T05:39:21.230Z,9.55
2019-05-09T05:40:24.727Z,9.58
2019-05-09T05:41:28.526Z,9.64
2019-05-09T05:42:32.028Z,9.57
2019-05-09T05:43:41.602Z,9.61
2019-05-09T05:44:40.756Z,9.70
2019-05-09T05:45:47.943Z,9.79
2019-05-09T05:47:01.799Z,9.83
2019-05-09T05:48:09.996Z,9.85
2019-05-09T05:49:13.472Z,9.90
2019-05-09T05:50:17.742Z,9.89
2019-05-09T05:51:21.244Z,9.92
2019-05-09T05:52:24.709Z,9.94
2019-05-09T05:53:28.174Z,9.98
2019-05-09T05:54:31.720Z,10.00
2019-05-09T05:55:35.188Z,9.96
2019-05-09T05:56:38.691Z,9.91
2019-05-09T05:57:42.151Z,9.93
2019-05-09T05:58:45.611Z,9.97
2019-05-09T05:59:49.147Z,9.95
2019-05-09T06:00:52.631Z,9.98
2019-05-09T06:01:58.300Z,10.00
2019-05-09T06:03:01.403Z,10.00
2019-05-09T06:04:04.948Z,10.03
2019-05-09T06:05:08.655Z,10.10
2019-05-09T06:06:12.201Z,10.13
2019-05-09T06:07:18.281Z,10.14
2019-05-09T06:08:21.339Z,10.18
2019-05-09T06:09:24.802Z,10.15
2019-05-09T06:10:29.041Z,10.19
2019-05-09T06:11:32.648Z,10.21
2019-05-09T06:12:38.077Z,10.27
2019-05-09T06:13:53.306Z,10.29
2019-05-09T06:14:48.063Z,10.32
2019-05-09T06:15:51.705Z,10.30
2019-05-09T06:16:55.337Z,10.34
2019-05-09T06:17:58.806Z,10.34
2019-05-09T06:19:02.555Z,10.34
2019-05-09T06:20:08.945Z,10.38
2019-05-09T06:21:11.778Z,10.44
2019-05-09T06:22:15.467Z,10.49
2019-05-09T06:23:19.010Z,10.53
2019-05-09T06:24:22.473Z,10.55
2019-05-09T06:25:30.047Z,10.54
2019-05-09T06:26:31.208Z,10.53
2019-05-09T06:27:34.762Z,10.58
2019-05-09T06:28:38.366Z,10.60
2019-05-09T06:29:41.912Z,10.62
2019-05-09T06:30:47.244Z,10.67
2019-05-09T06:31:50.659Z,10.71
2019-05-09T06:32:58.656Z,10.75
2019-05-09T06:34:02.259Z,10.73
2019-05-09T06:35:08.191Z,10.72
2019-05-09T06:36:11.360Z,10.75
2019-05-09T06:37:14.831Z,10.83
2019-05-09T06:38:18.878Z,10.88
2019-05-09T06:39:22.370Z,10.92
2019-05-09T06:40:26.573Z,10.88
2019-05-09T06:41:31.232Z,10.78
2019-05-09T06:42:34.735Z,10.79
2019-05-09T06:43:39.917Z,10.84
2019-05-09T06:44:50.917Z,10.83
2019-05-09T06:46:04.428Z,10.84
2019-05-09T06:47:15.360Z,10.92
2019-05-09T06:48:20.524Z,10.97
2019-05-09T06:49:31.794Z,11.04
2019-05-09T06:50:34.059Z,11.05
2019-05-09T06:51:38.751Z,11.02
2019-05-09T06:52:42.311Z,10.99
2019-05-09T06:53:45.800Z,11.02
2019-05-09T06:54:49.281Z,11.05
2019-05-09T06:55:52.824Z,11.14
2019-05-09T06:56:58.398Z,11.17
2019-05-09T06:58:03.150Z,11.05
2019-05-09T06:59:07.673Z,11.07
2019-05-09T07:00:13.369Z,11.11
2019-05-09T07:01:21.233Z,11.14
2019-05-09T07:02:28.287Z,11.19
2019-05-09T07:03:33.260Z,11.25
2019-05-09T07:04:38.388Z,11.23
2019-05-09T07:05:59.514Z,11.21
2019-05-09T07:07:08.105Z,11.24
2019-05-09T07:08:13.275Z,11.25
2019-05-09T07:09:18.417Z,11.20
2019-05-09T07:10:21.957Z,11.20
2019-05-09T07:11:27.568Z,11.25
2019-05-09T07:12:30.692Z,11.30
2019-05-09T07:13:34.174Z,11.32
2019-05-09T07:14:41.293Z,11.37
2019-05-09T07:15:42.851Z,11.41
2019-05-09T07:16:47.843Z,11.46
2019-05-09T07:17:51.940Z,11.47
2019-05-09T07:18:57.929Z,11.51
2019-05-09T07:20:01.557Z,11.53
2019-05-09T07:21:05.368Z,11.55
2019-05-09T07:22:18.442Z,11.53
2019-05-09T07:23:21.841Z,11.58
2019-05-09T07:24:28.492Z,11.65
2019-05-09T07:25:32.498Z,11.73
2019-05-09T07:26:37.342Z,11.77
2019-05-09T07:27:42.547Z,11.81
2019-05-09T07:28:48.396Z,11.80
2019-05-09T07:29:52.654Z,11.77
2019-05-09T07:31:04.013Z,11.80
2019-05-09T07:32:15.467Z,11.83
2019-05-09T07:33:23.492Z,11.84
2019-05-09T07:34:28.850Z,11.68
2019-05-09T07:35:32.409Z,11.64
2019-05-09T07:36:38.384Z,11.69
2019-05-09T07:37:41.781Z,11.73
2019-05-09T07:38:47.790Z,11.67
2019-05-09T07:39:51.626Z,11.70
2019-05-09T07:40:55.116Z,11.76
2019-05-09T07:41:58.644Z,11.82
2019-05-09T07:43:02.137Z,11.88
2019-05-09T07:44:07.585Z,11.85
2019-05-09T07:45:11.131Z,11.89
2019-05-09T07:46:28.863Z,11.90
2019-05-09T07:47:32.520Z,11.96
2019-05-09T07:48:38.209Z,12.00
2019-05-09T07:49:41.899Z,11.96
2019-05-09T07:50:45.371Z,11.97
2019-05-09T07:51:48.872Z,11.99
2019-05-09T07:52:52.335Z,12.02
2019-05-09T07:53:58.690Z,12.06
2019-05-09T07:55:01.579Z,12.12
2019-05-09T07:56:05.206Z,12.12
2019-05-09T07:57:08.792Z,12.15
2019-05-09T07:58:14.331Z,12.17
2019-05-09T07:59:18.170Z,12.22
2019-05-09T08:00:35.026Z,12.29
2019-05-09T08:01:38.655Z,12.28
2019-05-09T08:02:42.204Z,12.26
2019-05-09T08:03:45.789Z,12.32
2019-05-09T08:04:49.262Z,12.38
2019-05-09T08:05:53.519Z,12.39
2019-05-09T08:06:57.939Z,12.31
2019-05-09T08:08:01.737Z,12.27
2019-05-09T08:09:08.418Z,12.32
2019-05-09T08:10:12.207Z,12.38
2019-05-09T08:11:18.007Z,12.44
2019-05-09T08:12:21.272Z,12.47
2019-05-09T08:13:24.751Z,12.54
2019-05-09T08:14:28.388Z,12.58
2019-05-09T08:15:31.984Z,12.64
2019-05-09T08:16:37.785Z,12.72
2019-05-09T08:17:41.583Z,12.75
2019-05-09T08:18:45.060Z,12.72
2019-05-09T08:19:48.627Z,12.76
2019-05-09T08:20:52.061Z,12.80
2019-05-09T08:21:57.505Z,12.75
2019-05-09T08:23:02.331Z,12.74
2019-05-09T08:24:08.094Z,12.72
2019-05-09T08:25:11.497Z,12.74
2019-05-09T08:26:15.005Z,12.79
2019-05-09T08:27:18.686Z,12.85
2019-05-09T08:28:22.331Z,12.86
2019-05-09T08:29:28.192Z,12.93
2019-05-09T08:30:35.889Z,12.96
2019-05-09T08:31:40.097Z,13.01
2019-05-09T08:32:41.874Z,13.02
2019-05-09T08:33:45.492Z,13.05
2019-05-09T08:34:48.966Z,13.02
2019-05-09T08:35:52.922Z,13.04
2019-05-09T08:36:57.988Z,13.01
2019-05-09T08:38:01.787Z,12.93
2019-05-09T08:39:08.124Z,12.94
2019-05-09T08:40:11.892Z,13.02
2019-05-09T08:41:18.387Z,13.10
2019-05-09T08:42:21.342Z,13.17
2019-05-09T08:43:25.030Z,13.24
2019-05-09T08:44:31.237Z,13.22
2019-05-09T08:45:34.015Z,13.17
2019-05-09T08:46:37.856Z,13.10
2019-05-09T08:47:41.517Z,13.07
2019-05-09T08:48:45.154Z,13.14
2019-05-09T08:49:58.408Z,13.24
2019-05-09T08:51:19.386Z,13.30
2019-05-09T08:52:23.014Z,13.30
2019-05-09T08:53:27.593Z,13.39
2019-05-09T08:54:44.561Z,13.35
2019-05-09T08:55:48.105Z,13.35
2019-05-09T08:56:51.637Z,13.45
2019-05-09T08:57:55.172Z,13.52
2019-05-09T08:59:01.958Z,13.60
2019-05-09T09:00:08.162Z,13.64
2019-05-09T09:01:12.170Z,13.62
2019-05-09T09:02:21.654Z,13.63
2019-05-09T09:03:21.153Z,13.67
2019-05-09T09:04:24.624Z,13.72
2019-05-09T09:05:28.877Z,13.62
2019-05-09T09:06:32.488Z,13.59
2019-05-09T09:07:37.978Z,13.49
2019-05-09T09:08:41.157Z,13.41
2019-05-09T09:09:44.599Z,13.40
2019-05-09T09:10:48.955Z,13.47
2019-05-09T09:11:52.650Z,13.52
2019-05-09T09:12:58.110Z,13.62
2019-05-09T09:14:01.330Z,13.71
2019-05-09T09:15:07.782Z,13.80
2019-05-09T09:16:18.440Z,13.89
2019-05-09T09:17:18.732Z,13.89
2019-05-09T09:18:22.161Z,13.94
2019-05-09T09:19:27.884Z,13.96
2019-05-09T09:20:31.368Z,14.03
2019-05-09T09:21:35.036Z,14.09
2019-05-09T09:22:38.506Z,14.16
2019-05-09T09:23:46.742Z,14.17
2019-05-09T09:24:48.292Z,14.27
2019-05-09T09:25:51.761Z,14.29
2019-05-09T09:26:57.261Z,14.39
2019-05-09T09:28:00.537Z,14.44
2019-05-09T09:29:04.050Z,14.48
2019-05-09T09:30:17.636Z,14.53
2019-05-09T09:31:12.975Z,14.61
2019-05-09T09:32:19.006Z,14.59
2019-05-09T09:33:21.591Z,14.49
2019-05-09T09:34:27.119Z,14.34
2019-05-09T09:35:30.312Z,14.31
2019-05-09T09:36:33.737Z,14.42
2019-05-09T09:37:47.561Z,14.49
2019-05-09T09:38:43.375Z,14.49
2019-05-09T09:39:48.847Z,14.59
2019-05-09T09:40:51.980Z,14.67
2019-05-09T09:41:55.502Z,14.72
2019-05-09T09:42:59.072Z,14.77
2019-05-09T09:44:02.719Z,14.81
2019-05-09T09:45:07.794Z,14.78
2019-05-09T09:46:14.638Z,14.65
2019-05-09T09:47:22.382Z,14.60
2019-05-09T09:48:22.547Z,14.58
2019-05-09T09:49:28.975Z,14.59
2019-05-09T09:50:32.203Z,14.58
2019-05-09T09:51:38.043Z,14.58
2019-05-09T09:52:41.091Z,14.62
2019-05-09T09:53:44.846Z,14.62
2019-05-09T09:54:48.413Z,14.59
2019-05-09T09:55:51.875Z,14.51
2019-05-09T09:56:55.375Z,14.42
2019-05-09T09:57:59.156Z,14.38
2019-05-09T09:59:22.432Z,14.33
2019-05-09T10:00:47.639Z,14.37
2019-05-09T10:01:55.016Z,14.38
2019-05-09T10:02:58.779Z,14.38
2019-05-09T10:04:19.407Z,14.32
2019-05-09T10:05:14.979Z,14.35
2019-05-09T10:06:18.884Z,14.42
2019-05-09T10:07:22.397Z,14.49
2019-05-09T10:08:25.999Z,14.55
2019-05-09T10:09:29.432Z,14.48
2019-05-09T10:10:35.042Z,14.48
2019-05-09T10:11:39.810Z,14.53
2019-05-09T10:12:44.566Z,14.54
2019-05-09T10:13:51.744Z,14.53
2019-05-09T10:14:57.954Z,14.54
2019-05-09T10:16:05.639Z,14.62
2019-05-09T10:17:28.098Z,14.64
2019-05-09T10:18:33.328Z,14.65
2019-05-09T10:19:42.087Z,14.71
2019-05-09T10:20:48.487Z,14.68
2019-05-09T10:21:54.297Z,14.72
2019-05-09T10:23:09.027Z,14.76
2019-05-09T10:24:03.297Z,14.89
2019-05-09T10:25:07.918Z,14.92
2019-05-09T10:26:11.593Z,15.01
2019-05-09T10:27:18.513Z,15.03
2019-05-09T10:28:22.133Z,15.12
2019-05-09T10:29:27.916Z,15.10
2019-05-09T10:30:34.489Z,15.13
2019-05-09T10:31:39.235Z,15.12
2019-05-09T10:32:42.878Z,15.06
2019-05-09T10:33:48.256Z,15.03
2019-05-09T10:34:51.768Z,15.03
2019-05-09T10:35:55.278Z,15.01
2019-05-09T10:36:59.113Z,14.90
2019-05-09T10:38:03.172Z,14.91
2019-05-09T10:39:08.262Z,14.97
2019-05-09T10:40:15.145Z,15.00
2019-05-09T10:41:18.917Z,15.08
2019-05-09T10:42:24.426Z,14.99
2019-05-09T10:43:38.108Z,14.96
2019-05-09T10:44:37.507Z,14.83
2019-05-09T10:45:59.295Z,14.81
2019-05-09T10:47:04.755Z,14.82
2019-05-09T10:48:08.487Z,14.83
2019-05-09T10:49:12.198Z,14.83
2019-05-09T10:50:18.292Z,14.83
2019-05-09T10:51:21.086Z,14.79
2019-05-09T10:52:30.293Z,14.74
2019-05-09T10:53:33.736Z,14.74
2019-05-09T10:54:37.164Z,14.77
2019-05-09T10:55:40.617Z,14.74
2019-05-09T10:56:44.153Z,14.73
2019-05-09T10:57:52.058Z,14.69
2019-05-09T10:58:53.319Z,14.63
2019-05-09T10:59:57.962Z,14.58
2019-05-09T11:01:01.589Z,14.59
2019-05-09T11:02:09.210Z,14.64
2019-05-09T11:03:11.517Z,14.70
2019-05-09T11:04:15.308Z,14.65
2019-05-09T11:05:19.025Z,14.63
2019-05-09T11:06:22.612Z,14.62
2019-05-09T11:07:28.703Z,14.58
2019-05-09T11:08:31.329Z,14.53
2019-05-09T11:09:35.384Z,14.54
2019-05-09T11:10:39.924Z,14.55
2019-05-09T11:11:44.242Z,14.50
2019-05-09T11:12:48.184Z,14.48
2019-05-09T11:13:51.957Z,14.45
2019-05-09T11:14:55.472Z,14.41
2019-05-09T11:15:59.074Z,14.32
2019-05-09T11:17:10.757Z,14.30
2019-05-09T11:18:08.280Z,14.24
2019-05-09T11:19:11.724Z,14.16
2019-05-09T11:20:15.212Z,14.11
2019-05-09T11:21:19.463Z,14.04
2019-05-09T11:22:23.651Z,13.90
2019-05-09T11:23:29.184Z,13.89
2019-05-09T11:24:44.923Z,13.89
2019-05-09T11:25:38.013Z,13.63
2019-05-09T11:26:41.705Z,13.61
2019-05-09T11:27:45.264Z,13.63
2019-05-09T11:28:48.703Z,13.59
2019-05-09T11:29:52.207Z,13.52
2019-05-09T11:30:55.705Z,13.58
2019-05-09T11:31:59.238Z,13.64
2019-05-09T11:33:02.672Z,13.65
2019-05-09T11:34:08.906Z,13.70
2019-05-09T11:35:11.542Z,13.61
2019-05-09T11:36:19.986Z,13.47
2019-05-09T11:37:22.202Z,13.50
2019-05-09T11:38:32.180Z,13.35
2019-05-09T11:39:38.202Z,13.25
2019-05-09T11:40:37.845Z,13.13
2019-05-09T11:41:41.460Z,13.10
2019-05-09T11:42:44.907Z,13.06
2019-05-09T11:43:48.757Z,13.11
2019-05-09T11:44:52.253Z,13.21
2019-05-09T11:45:55.684Z,13.23
2019-05-09T11:46:59.208Z,13.33
2019-05-09T11:48:02.747Z,13.38
2019-05-09T11:49:08.352Z,13.43
2019-05-09T11:50:11.512Z,13.40
2019-05-09T11:51:18.241Z,13.48
2019-05-09T11:52:20.183Z,13.59
2019-05-09T11:53:23.614Z,13.67
2019-05-09T11:54:27.958Z,13.84
2019-05-09T11:55:36.039Z,14.00
2019-05-09T11:56:38.492Z,14.21
2019-05-09T11:57:42.028Z,14.43
2019-05-09T11:58:47.825Z,14.60
2019-05-09T11:59:50.613Z,14.71
2019-05-09T12:00:54.106Z,14.78
2019-05-09T12:01:58.570Z,14.88
2019-05-09T12:03:02.389Z,14.96
2019-05-09T12:04:07.994Z,15.10
2019-05-09T12:05:11.136Z,15.25
2019-05-09T12:06:16.154Z,15.41
2019-05-09T12:07:19.784Z,15.72
2019-05-09T12:08:23.246Z,16.02
2019-05-09T12:09:28.815Z,16.14
2019-05-09T12:10:31.893Z,16.29
2019-05-09T12:11:39.133Z,16.42
2019-05-09T12:12:40.608Z,16.68
2019-05-09T12:13:44.057Z,16.87
2019-05-09T12:14:48.347Z,17.07
2019-05-09T12:15:51.932Z,17.23
2019-05-09T12:16:55.434Z,17.48
2019-05-09T12:18:05.385Z,17.75
2019-05-09T12:19:04.118Z,17.84
2019-05-09T12:20:12.572Z,18.00
2019-05-09T12:21:13.045Z,17.91
2019-05-09T12:22:19.143Z,17.78
2019-05-09T12:23:21.687Z,17.94
2019-05-09T12:24:25.282Z,18.39
2019-05-09T12:25:28.719Z,18.66
2019-05-09T12:26:32.222Z,18.29
2019-05-09T12:27:35.670Z,18.25
2019-05-09T12:28:39.180Z,18.21
2019-05-09T12:29:42.638Z,18.11
2019-05-09T12:30:48.788Z,18.30
2019-05-09T12:31:51.350Z,18.61
2019-05-09T12:32:54.793Z,19.07
2019-05-09T12:33:59.423Z,18.80
2019-05-09T12:35:03.272Z,19.03
2019-05-09T12:36:09.183Z,18.93
2019-05-09T12:37:12.143Z,18.95
2019-05-09T12:38:17.898Z,19.23
2019-05-09T12:39:20.796Z,19.22
2019-05-09T12:40:24.245Z,19.65
2019-05-09T12:41:31.448Z,19.80
2019-05-09T12:42:32.850Z,19.64
2019-05-09T12:43:38.197Z,19.48
2019-05-09T12:44:41.726Z,19.88
2019-05-09T12:45:47.670Z,20.37
2019-05-09T12:46:50.340Z,20.90
2019-05-09T12:48:06.443Z,21.31
2019-05-09T12:48:59.395Z,21.43
2019-05-09T12:50:03.254Z,21.73
2019-05-09T12:51:08.220Z,21.07
2019-05-09T12:52:11.777Z,21.17
2019-05-09T12:53:15.356Z,21.29
2019-05-09T12:54:19.226Z,20.95
2019-05-09T12:55:22.810Z,21.04
2019-05-09T12:56:28.465Z,20.36
2019-05-09T12:57:31.548Z,19.37
2019-05-09T12:58:34.982Z,19.13
2019-05-09T12:59:48.973Z,19.03
2019-05-09T13:00:43.842Z,19.19
2019-05-09T13:01:49.109Z,19.42
2019-05-09T13:02:52.431Z,19.14
2019-05-09T13:03:58.338Z,19.04
2019-05-09T13:05:01.134Z,18.90
2019-05-09T13:06:04.777Z,18.73
2019-05-09T13:07:08.552Z,18.46
2019-05-09T13:08:12.096Z,18.70
2019-05-09T13:09:17.775Z,19.14
2019-05-09T13:10:20.783Z,19.28
2019-05-09T13:11:24.219Z,18.95
2019-05-09T13:12:29.167Z,19.25
2019-05-09T13:13:32.740Z,19.29
2019-05-09T13:14:37.979Z,19.20
2019-05-09T13:15:49.007Z,19.05
2019-05-09T13:17:08.114Z,18.89
2019-05-09T13:18:22.008Z,19.15
2019-05-09T13:19:18.617Z,20.03
2019-05-09T13:20:22.215Z,20.62
2019-05-09T13:21:28.634Z,20.26
2019-05-09T13:22:30.899Z,20.03
2019-05-09T13:23:34.437Z,20.16
2019-05-09T13:24:38.049Z,19.96
2019-05-09T13:25:41.525Z,20.67
2019-05-09T13:26:48.000Z,21.41
2019-05-09T13:27:52.844Z,21.30
2019-05-09T13:28:58.820Z,20.63
2019-05-09T13:30:02.509Z,20.45
2019-05-09T13:31:08.269Z,20.44
2019-05-09T13:32:11.172Z,20.00
2019-05-09T13:33:14.679Z,19.72
2019-05-09T13:34:18.918Z,19.88
2019-05-09T13:35:22.621Z,20.37
2019-05-09T13:36:28.348Z,20.88
2019-05-09T13:37:31.387Z,20.56
2019-05-09T13:38:34.964Z,20.51
2019-05-09T13:39:39.633Z,20.54
2019-05-09T13:40:43.386Z,20.28
2019-05-09T13:41:47.594Z,20.24
2019-05-09T13:42:51.230Z,20.03
2019-05-09T13:43:59.242Z,20.01
2019-05-09T13:44:59.943Z,20.27
2019-05-09T13:46:03.411Z,20.17
2019-05-09T13:47:10.634Z,20.37
2019-05-09T13:48:26.450Z,20.75
2019-05-09T13:49:19.323Z,21.08
2019-05-09T13:50:22.580Z,20.75
2019-05-09T13:51:26.077Z,21.13
2019-05-09T13:52:29.468Z,21.60
2019-05-09T13:53:32.979Z,21.55
2019-05-09T13:54:38.271Z,21.45
2019-05-09T13:55:41.579Z,21.51
2019-05-09T13:56:45.126Z,21.55
2019-05-09T13:57:48.945Z,21.33
2019-05-09T13:58:52.465Z,21.50
2019-05-09T13:59:58.307Z,21.37
2019-05-09T14:01:02.723Z,21.36
2019-05-09T14:02:06.437Z,22.19
2019-05-09T14:03:09.888Z,22.34
2019-05-09T14:04:13.338Z,22.56
2019-05-09T14:05:18.943Z,23.21
2019-05-09T14:06:22.149Z,22.66